Time;durP1;ratioP1;P1;durP2;ratioP2;P2;SDS_P1;SDS_P2;PMS_P1;PMS_P2;Temp;Humidity;BMP_temperature;BMP_pressure;BME280_temperature;BME280_humidity;BME280_pressure;Samples;Min_cycle;Max_cycle;Signal;HPM_P1;HPM_P2
2024/01/22 00:01:36;;;;;;;6.80;2.70;;;4.60;99.90;;;;;;502958;236;27469;-67
2024/01/22 00:03:37;;;;;;;9.77;3.15;;;4.60;99.90;;;;;;502951;236;27363;-66
2024/01/22 00:05:38;;;;;;;3.87;2.65;;;4.60;99.90;;;;;;502891;236;27401;-66
2024/01/22 00:07:40;;;;;;;7.00;2.67;;;4.50;99.90;;;;;;502910;236;27502;-66
2024/01/22 00:09:41;;;;;;;6.18;2.60;;;4.50;99.90;;;;;;502943;233;27375;-66
2024/01/22 00:11:42;;;;;;;5.10;3.37;;;4.60;99.90;;;;;;502942;236;27382;-66
2024/01/22 00:13:43;;;;;;;4.45;2.75;;;4.60;99.90;;;;;;502934;236;28057;-66
2024/01/22 00:15:45;;;;;;;5.00;2.95;;;4.50;99.90;;;;;;502913;236;27977;-66
2024/01/22 00:17:46;;;;;;;9.52;2.53;;;4.50;99.90;;;;;;502981;236;27990;-66
2024/01/22 00:19:47;;;;;;;3.08;2.75;;;4.60;99.90;;;;;;503004;236;27532;-66
2024/01/22 00:21:48;;;;;;;8.25;3.00;;;4.50;99.90;;;;;;502924;236;27477;-66
2024/01/22 00:23:50;;;;;;;7.47;3.00;;;4.50;99.90;;;;;;502971;236;27445;-66
2024/01/22 00:25:51;;;;;;;3.00;2.25;;;4.50;99.90;;;;;;502883;236;27469;-65
2024/01/22 00:27:52;;;;;;;9.00;2.30;;;4.50;99.90;;;;;;503004;236;27394;-66
2024/01/22 00:29:54;;;;;;;6.50;2.95;;;4.60;99.90;;;;;;502970;236;27497;-66
2024/01/22 00:31:55;;;;;;;5.05;2.67;;;4.50;99.90;;;;;;502931;236;27515;-66
2024/01/22 00:33:56;;;;;;;5.32;2.55;;;4.60;99.90;;;;;;502936;236;27450;-66
2024/01/22 00:35:57;;;;;;;5.65;2.60;;;4.70;99.90;;;;;;502925;236;27510;-66
2024/01/22 00:37:59;;;;;;;7.85;2.95;;;4.60;99.90;;;;;;502955;236;27410;-67
2024/01/22 00:40:00;;;;;;;6.55;2.53;;;4.70;99.90;;;;;;502971;236;27532;-66
2024/01/22 00:42:01;;;;;;;2.95;2.53;;;4.70;99.90;;;;;;502918;236;27985;-67
2024/01/22 00:44:02;;;;;;;2.80;2.30;;;4.70;99.90;;;;;;502934;236;28671;-66
2024/01/22 00:46:04;;;;;;;4.97;2.72;;;4.60;99.90;;;;;;502951;236;27956;-66
2024/01/22 00:48:05;;;;;;;5.30;3.03;;;4.70;99.90;;;;;;502829;236;27478;-66
2024/01/22 00:50:06;;;;;;;6.37;2.50;;;4.80;99.90;;;;;;502938;236;27454;-66
2024/01/22 00:52:07;;;;;;;3.67;2.53;;;4.80;99.90;;;;;;502902;236;27494;-67
2024/01/22 00:54:09;;;;;;;6.82;2.72;;;4.80;99.90;;;;;;502995;236;27392;-66
2024/01/22 00:56:10;;;;;;;3.33;2.55;;;4.90;99.90;;;;;;502931;236;27525;-66
2024/01/22 00:58:11;;;;;;;9.43;3.33;;;4.80;99.90;;;;;;502975;236;27489;-66
2024/01/22 01:00:12;;;;;;;7.45;3.33;;;4.80;99.90;;;;;;502959;236;27355;-66
2024/01/22 01:02:14;;;;;;;7.10;2.72;;;4.70;99.90;;;;;;502918;236;27570;-66
2024/01/22 01:04:15;;;;;;;5.30;2.45;;;4.70;99.90;;;;;;502984;236;28104;-67
2024/01/22 01:06:16;;;;;;;7.82;2.45;;;4.60;99.90;;;;;;502908;236;27919;-66
2024/01/22 01:08:17;;;;;;;5.82;2.50;;;4.70;99.90;;;;;;502976;236;27934;-66
2024/01/22 01:10:19;;;;;;;4.65;2.40;;;4.70;99.90;;;;;;502906;236;27449;-66
2024/01/22 01:12:20;;;;;;;6.53;2.50;;;4.80;99.90;;;;;;502956;236;27537;-67
2024/01/22 01:14:21;;;;;;;4.40;2.67;;;4.80;99.90;;;;;;503001;236;27390;-66
2024/01/22 01:16:22;;;;;;;7.00;2.70;;;4.80;99.90;;;;;;502950;236;27474;-66
2024/01/22 01:18:24;;;;;;;5.18;2.50;;;4.80;99.90;;;;;;502977;236;27572;-66
2024/01/22 01:20:25;;;;;;;6.15;2.72;;;4.80;99.90;;;;;;502991;236;27850;-66
2024/01/22 01:22:26;;;;;;;5.40;2.15;;;4.90;99.90;;;;;;502967;236;27484;-66
2024/01/22 01:24:27;;;;;;;3.80;2.58;;;4.90;99.90;;;;;;503009;236;27886;-67
2024/01/22 01:26:29;;;;;;;4.43;2.40;;;4.90;99.90;;;;;;502972;236;27824;-66
2024/01/22 01:28:30;;;;;;;3.72;2.72;;;5.00;99.90;;;;;;502945;236;27474;-66
2024/01/22 01:30:31;;;;;;;6.05;2.30;;;4.90;99.90;;;;;;503003;236;27422;-67
2024/01/22 01:32:32;;;;;;;6.62;2.50;;;4.90;99.90;;;;;;502929;236;27504;-66
2024/01/22 01:34:34;;;;;;;3.87;2.40;;;4.90;99.90;;;;;;502984;236;27486;-66
2024/01/22 01:36:35;;;;;;;3.83;2.55;;;4.90;99.90;;;;;;502964;236;27451;-66
2024/01/22 01:38:36;;;;;;;6.75;2.60;;;5.00;99.90;;;;;;502941;236;27490;-66
2024/01/22 01:40:37;;;;;;;6.43;2.50;;;5.00;99.90;;;;;;503005;236;27577;-67
2024/01/22 01:42:39;;;;;;;5.35;2.35;;;5.00;99.90;;;;;;502956;236;27903;-66
2024/01/22 01:44:40;;;;;;;2.80;2.50;;;5.00;99.90;;;;;;502906;236;27955;-67
2024/01/22 01:46:41;;;;;;;3.55;2.40;;;5.10;99.90;;;;;;502871;236;28659;-66
2024/01/22 01:48:42;;;;;;;4.45;2.20;;;5.20;99.90;;;;;;502979;236;27454;-66
2024/01/22 01:50:44;;;;;;;2.62;2.10;;;5.30;99.90;;;;;;502955;236;27497;-66
2024/01/22 01:52:45;;;;;;;2.87;2.28;;;5.30;99.90;;;;;;502960;236;27467;-66
2024/01/22 01:54:46;;;;;;;4.70;2.28;;;5.30;99.90;;;;;;502893;236;27383;-66
2024/01/22 01:56:47;;;;;;;2.92;2.20;;;5.30;99.90;;;;;;502992;233;27466;-67
2024/01/22 01:58:49;;;;;;;7.37;2.50;;;5.30;99.90;;;;;;502987;236;27462;-65
2024/01/22 02:00:50;;;;;;;5.78;2.22;;;5.40;99.90;;;;;;502980;236;27967;-66
2024/01/22 02:02:51;;;;;;;6.93;2.20;;;5.40;99.90;;;;;;502904;236;27874;-66
2024/01/22 02:04:52;;;;;;;3.65;2.37;;;5.40;99.90;;;;;;502890;236;27597;-66
2024/01/22 02:06:54;;;;;;;3.55;2.47;;;5.40;99.90;;;;;;502985;236;27613;-67
2024/01/22 02:08:55;;;;;;;7.65;2.67;;;5.50;99.90;;;;;;502980;236;27442;-66
2024/01/22 02:10:56;;;;;;;2.47;1.77;;;5.60;99.90;;;;;;502961;236;27500;-66
2024/01/22 02:12:58;;;;;;;2.70;1.90;;;5.60;99.90;;;;;;502907;236;27462;-66
2024/01/22 02:14:59;;;;;;;2.45;1.92;;;5.80;99.90;;;;;;502937;236;27399;-66
2024/01/22 02:17:00;;;;;;;4.57;2.78;;;5.80;99.90;;;;;;502979;236;28110;-67
2024/01/22 02:19:01;;;;;;;5.12;2.20;;;5.90;99.90;;;;;;502950;236;27923;-66
2024/01/22 02:21:03;;;;;;;3.25;1.70;;;6.00;99.90;;;;;;502931;236;27954;-66
2024/01/22 02:23:04;;;;;;;3.80;1.95;;;6.10;99.90;;;;;;502965;236;27399;-66
2024/01/22 02:25:05;;;;;;;3.90;1.90;;;6.00;99.90;;;;;;502946;236;27431;-65
2024/01/22 02:27:06;;;;;;;3.58;2.10;;;5.90;99.90;;;;;;502949;236;27524;-66
2024/01/22 02:29:08;;;;;;;6.20;1.80;;;6.10;99.90;;;;;;502954;236;27552;-66
2024/01/22 02:31:10;;;;;;;4.07;1.70;;;6.20;99.90;;;;;;502951;236;27486;-66
2024/01/22 02:33:10;;;;;;;2.40;1.62;;;6.10;99.90;;;;;;502939;236;27878;-67
2024/01/22 02:35:12;;;;;;;7.57;2.60;;;6.20;99.90;;;;;;502939;236;27814;-67
2024/01/22 02:37:15;;;;;;;4.85;2.15;;;6.20;99.90;;;;;;502974;236;26748;-66
2024/01/22 02:39:15;;;;;;;4.47;1.85;;;6.20;99.90;;;;;;502905;236;27976;-66
2024/01/22 02:41:16;;;;;;;5.57;1.92;;;6.20;99.90;;;;;;502953;236;27339;-66
2024/01/22 02:43:17;;;;;;;3.17;2.10;;;6.20;99.90;;;;;;502965;236;27363;-66
2024/01/22 02:45:18;;;;;;;5.30;1.90;;;6.20;99.90;;;;;;502930;236;27457;-67
2024/01/22 02:47:20;;;;;;;3.80;1.95;;;6.20;99.90;;;;;;502950;236;27534;-66
2024/01/22 02:49:21;;;;;;;3.10;1.75;;;6.30;99.90;;;;;;502934;236;27421;-66
2024/01/22 02:51:22;;;;;;;1.65;1.55;;;6.40;99.90;;;;;;502979;236;28396;-67
2024/01/22 02:53:23;;;;;;;3.75;2.30;;;6.40;99.90;;;;;;502957;236;27371;-66
2024/01/22 02:55:25;;;;;;;4.75;2.20;;;6.50;99.90;;;;;;502919;236;27594;-66
2024/01/22 02:57:26;;;;;;;3.15;1.83;;;6.40;99.90;;;;;;502903;236;27506;-66
2024/01/22 02:59:27;;;;;;;1.67;1.58;;;6.40;99.90;;;;;;502966;236;27489;-66
2024/01/22 03:01:28;;;;;;;2.03;1.75;;;6.50;99.90;;;;;;502970;236;27454;-66
2024/01/22 03:03:30;;;;;;;2.50;1.80;;;6.40;99.90;;;;;;502949;236;27886;-66
2024/01/22 03:05:32;;;;;;;2.22;1.55;;;;;;;;;;502786;236;27961;-66
2024/01/22 03:07:33;;;;;;;2.17;1.80;;;6.70;99.90;;;;;;502966;236;26763;-66
2024/01/22 03:09:35;;;;;;;2.47;1.65;;;6.70;99.90;;;;;;502972;236;27517;-67
2024/01/22 03:11:36;;;;;;;3.20;1.67;;;6.80;99.90;;;;;;502960;236;27905;-66
2024/01/22 03:13:37;;;;;;;3.25;1.45;;;6.80;99.90;;;;;;502961;236;28566;-66
2024/01/22 03:15:38;;;;;;;1.60;1.50;;;7.00;99.90;;;;;;502868;234;27560;-67
2024/01/22 03:17:40;;;;;;;3.40;1.50;;;6.90;99.90;;;;;;502961;236;27343;-66
2024/01/22 03:19:41;;;;;;;2.75;1.33;;;6.80;99.90;;;;;;502958;236;27591;-67
2024/01/22 03:21:42;;;;;;;5.93;1.50;;;6.70;99.90;;;;;;502975;236;27441;-66
2024/01/22 03:23:43;;;;;;;2.50;1.73;;;6.70;99.90;;;;;;502957;236;27426;-66
2024/01/22 03:25:45;;;;;;;2.03;1.40;;;6.80;99.90;;;;;;502907;236;27960;-67
2024/01/22 03:27:47;;;;;;;3.42;1.90;;;;;;;;;;502957;236;27805;-66
2024/01/22 03:29:48;;;;;;;3.15;1.77;;;6.90;99.90;;;;;;502954;236;26363;-66
2024/01/22 03:31:50;;;;;;;2.15;1.45;;;6.80;99.90;;;;;;502921;236;27950;-66
2024/01/22 03:33:51;;;;;;;1.48;1.37;;;6.80;99.90;;;;;;502979;236;27891;-67
2024/01/22 03:35:52;;;;;;;1.90;1.60;;;6.80;99.90;;;;;;502937;236;27583;-66
2024/01/22 03:37:53;;;;;;;2.22;1.80;;;6.70;99.90;;;;;;502951;236;28934;-66
2024/01/22 03:39:55;;;;;;;2.40;1.75;;;6.70;99.90;;;;;;502780;236;27556;-66
2024/01/22 03:41:56;;;;;;;1.77;1.55;;;6.60;99.90;;;;;;502962;236;27375;-66
2024/01/22 03:43:58;;;;;;;2.67;2.00;;;;;;;;;;502990;236;27438;-66
2024/01/22 03:45:59;;;;;;;12.15;2.20;;;6.60;99.90;;;;;;502933;236;26279;-66
2024/01/22 03:48:01;;;;;;;2.45;1.65;;;6.60;99.90;;;;;;502912;236;27474;-67
2024/01/22 03:50:03;;;;;;;7.25;1.85;;;6.70;99.90;;;;;;502949;236;27434;-66
2024/01/22 03:52:03;;;;;;;2.05;1.67;;;6.60;99.90;;;;;;502965;236;27970;-66
2024/01/22 03:54:04;;;;;;;2.10;1.50;;;6.70;99.90;;;;;;502990;236;27966;-65
2024/01/22 03:56:06;;;;;;;4.05;1.70;;;6.80;99.90;;;;;;502819;236;29132;-66
2024/01/22 03:58:07;;;;;;;4.13;1.60;;;6.80;99.90;;;;;;502985;236;27497;-67
2024/01/22 04:00:08;;;;;;;2.15;1.75;;;6.70;99.90;;;;;;502956;236;28865;-68
2024/01/22 04:02:10;;;;;;;2.67;1.70;;;6.80;99.90;;;;;;503003;236;27499;-65
2024/01/22 04:04:11;;;;;;;3.33;2.00;;;6.70;99.90;;;;;;502879;236;28151;-65
2024/01/22 04:06:12;;;;;;;4.00;1.90;;;6.90;99.90;;;;;;502925;236;27564;-65
2024/01/22 04:08:13;;;;;;;4.63;1.73;;;6.90;99.90;;;;;;503018;236;28189;-66
2024/01/22 04:10:14;;;;;;;4.75;2.10;;;6.90;99.90;;;;;;502993;236;29279;-65
2024/01/22 04:12:16;;;;;;;1.70;1.60;;;6.90;99.90;;;;;;502974;236;27983;-65
2024/01/22 04:14:17;;;;;;;4.10;2.00;;;6.90;99.90;;;;;;502959;236;27450;-68
2024/01/22 04:16:18;;;;;;;2.65;1.92;;;6.80;99.90;;;;;;502872;236;27598;-65
2024/01/22 04:18:20;;;;;;;3.08;1.62;;;6.80;99.90;;;;;;502962;236;27494;-66
2024/01/22 04:20:21;;;;;;;2.00;1.65;;;6.80;99.90;;;;;;502952;236;27509;-65
2024/01/22 04:22:22;;;;;;;2.58;1.85;;;6.80;99.90;;;;;;502965;234;27611;-65
2024/01/22 04:24:23;;;;;;;4.07;1.83;;;6.80;99.90;;;;;;502918;234;28656;-65
2024/01/22 04:26:25;;;;;;;2.80;1.70;;;6.80;99.90;;;;;;502832;236;27502;-67
2024/01/22 04:28:26;;;;;;;4.55;2.30;;;6.80;99.90;;;;;;502954;236;27398;-66
2024/01/22 04:30:27;;;;;;;2.65;1.90;;;6.80;99.90;;;;;;502947;236;27525;-64
2024/01/22 04:32:28;;;;;;;5.97;2.45;;;6.70;99.90;;;;;;502912;236;27580;-65
2024/01/22 04:34:30;;;;;;;2.20;1.80;;;6.80;99.90;;;;;;502994;236;27839;-67
2024/01/22 04:36:31;;;;;;;4.25;1.95;;;6.70;99.90;;;;;;502919;236;27922;-67
2024/01/22 04:38:32;;;;;;;10.23;1.83;;;6.70;99.90;;;;;;502991;236;27583;-67
2024/01/22 04:40:33;;;;;;;2.25;1.70;;;6.70;99.90;;;;;;502971;236;27431;-67
2024/01/22 04:42:35;;;;;;;6.35;2.00;;;6.80;99.90;;;;;;502954;236;27479;-67
2024/01/22 04:44:36;;;;;;;3.67;1.80;;;6.80;99.90;;;;;;502952;236;27426;-66
2024/01/22 04:46:37;;;;;;;2.58;1.60;;;6.80;99.90;;;;;;502931;236;27903;-66
2024/01/22 04:48:38;;;;;;;4.28;1.75;;;6.70;99.90;;;;;;502973;236;27942;-67
2024/01/22 04:50:40;;;;;;;5.70;2.17;;;6.70;99.90;;;;;;502966;236;27463;-67
2024/01/22 04:52:41;;;;;;;2.92;1.77;;;6.70;99.90;;;;;;502998;236;28665;-67
2024/01/22 04:54:42;;;;;;;5.22;1.90;;;6.60;99.90;;;;;;502929;236;27588;-67
2024/01/22 04:56:43;;;;;;;3.80;2.40;;;6.60;99.90;;;;;;502985;236;27455;-66
2024/01/22 04:58:45;;;;;;;3.72;2.10;;;6.70;99.90;;;;;;502948;236;28525;-66
2024/01/22 05:00:46;;;;;;;3.20;2.30;;;6.70;99.90;;;;;;502992;236;27517;-66
2024/01/22 05:02:47;;;;;;;7.95;1.70;;;6.80;99.90;;;;;;502978;236;28582;-66
2024/01/22 05:04:49;;;;;;;6.15;2.08;;;6.70;99.90;;;;;;502878;236;27958;-67
2024/01/22 05:06:50;;;;;;;4.70;2.42;;;6.60;99.90;;;;;;503006;236;27445;-67
2024/01/22 05:08:51;;;;;;;2.20;2.03;;;6.70;99.90;;;;;;503033;236;27470;-66
2024/01/22 05:10:52;;;;;;;2.85;1.75;;;6.80;99.90;;;;;;503017;236;27576;-68
2024/01/22 05:12:54;;;;;;;4.57;2.40;;;6.70;99.90;;;;;;503000;234;27442;-66
2024/01/22 05:14:55;;;;;;;3.47;2.00;;;6.70;99.90;;;;;;502964;236;27479;-67
2024/01/22 05:16:56;;;;;;;7.05;2.30;;;6.70;99.90;;;;;;502980;236;28677;-67
2024/01/22 05:18:57;;;;;;;2.22;2.00;;;6.70;99.90;;;;;;503052;236;28034;-67
2024/01/22 05:20:59;;;;;;;2.83;1.90;;;6.70;99.90;;;;;;502953;236;27481;-68
2024/01/22 05:23:00;;;;;;;4.30;2.12;;;6.80;99.90;;;;;;502992;236;27581;-65
2024/01/22 05:25:01;;;;;;;3.92;2.20;;;6.80;99.90;;;;;;502832;236;27509;-67
2024/01/22 05:27:03;;;;;;;2.40;2.00;;;6.90;99.90;;;;;;503004;236;27426;-66
2024/01/22 05:29:04;;;;;;;4.03;2.70;;;6.90;99.90;;;;;;503012;236;28121;-65
2024/01/22 05:31:05;;;;;;;3.03;2.10;;;6.90;99.90;;;;;;502972;236;28821;-65
2024/01/22 05:33:06;;;;;;;3.13;1.77;;;6.90;99.90;;;;;;502960;236;29259;-66
2024/01/22 05:35:07;;;;;;;2.03;1.70;;;6.90;99.90;;;;;;502923;236;29342;-65
2024/01/22 05:37:09;;;;;;;3.67;2.62;;;6.90;99.90;;;;;;503018;236;27869;-66
2024/01/22 05:39:10;;;;;;;2.55;2.30;;;7.00;99.90;;;;;;503001;236;27355;-67
2024/01/22 05:41:11;;;;;;;4.43;1.70;;;6.90;99.90;;;;;;503009;236;27394;-66
2024/01/22 05:43:12;;;;;;;2.37;1.70;;;7.00;99.90;;;;;;502953;236;27525;-65
2024/01/22 05:45:14;;;;;;;2.03;1.70;;;7.10;99.90;;;;;;502927;236;27391;-66
2024/01/22 05:47:15;;;;;;;2.80;1.80;;;7.20;99.90;;;;;;503000;236;28094;-66
2024/01/22 05:49:16;;;;;;;3.90;2.30;;;7.20;99.90;;;;;;502962;236;29241;-66
2024/01/22 05:51:17;;;;;;;2.87;1.70;;;7.20;99.90;;;;;;502983;234;28381;-66
2024/01/22 05:53:19;;;;;;;3.03;2.20;;;7.20;99.90;;;;;;502995;236;29618;-67
2024/01/22 05:55:20;;;;;;;3.63;2.27;;;7.20;99.90;;;;;;502952;236;27339;-66
2024/01/22 05:57:21;;;;;;;3.33;2.50;;;7.30;99.90;;;;;;502780;236;27606;-66
2024/01/22 05:59:22;;;;;;;2.07;1.90;;;7.30;99.90;;;;;;502671;236;28497;-68
2024/01/22 06:01:24;;;;;;;2.58;1.80;;;7.30;99.90;;;;;;502601;236;28827;-66
2024/01/22 06:03:25;;;;;;;1.67;1.58;;;7.40;99.90;;;;;;502779;236;27398;-66
2024/01/22 06:05:27;;;;;;;3.80;1.90;;;7.60;99.90;;;;;;502864;236;27552;-66
2024/01/22 06:07:27;;;;;;;3.27;1.80;;;7.60;99.90;;;;;;502941;236;28792;-67
2024/01/22 06:09:29;;;;;;;1.90;1.50;;;7.50;99.90;;;;;;502877;236;28153;-66
2024/01/22 06:11:30;;;;;;;2.60;1.60;;;7.50;99.90;;;;;;502987;236;28278;-66
2024/01/22 06:13:31;;;;;;;2.30;1.80;;;7.50;99.90;;;;;;502985;236;28404;-67
2024/01/22 06:15:32;;;;;;;3.27;1.87;;;7.50;99.90;;;;;;502880;236;28081;-66
2024/01/22 06:17:34;;;;;;;1.93;1.83;;;7.60;99.90;;;;;;502955;236;28493;-66
2024/01/22 06:19:35;;;;;;;4.80;1.60;;;7.70;99.90;;;;;;503006;236;28288;-67
2024/01/22 06:21:36;;;;;;;1.60;1.50;;;7.80;99.90;;;;;;502986;236;27451;-65
2024/01/22 06:23:37;;;;;;;2.70;2.00;;;7.80;99.90;;;;;;502976;236;27866;-67
2024/01/22 06:25:39;;;;;;;2.80;1.90;;;8.00;99.90;;;;;;502882;236;27455;-66
2024/01/22 06:27:44;;;;;;;1.70;1.60;;;8.00;99.90;;;;;;502980;236;27599;-67
2024/01/22 06:29:41;;;;;;;2.43;1.40;;;8.20;99.90;;;;;;502834;236;27895;-68
2024/01/22 06:31:42;;;;;;;2.60;1.43;;;8.10;99.90;;;;;;502961;236;28577;-67
2024/01/22 06:33:44;;;;;;;2.40;1.50;;;8.10;99.90;;;;;;502965;236;28040;-67
2024/01/22 06:35:45;;;;;;;4.40;1.93;;;8.00;99.90;;;;;;502861;236;27965;-67
2024/01/22 06:37:46;;;;;;;3.40;1.90;;;8.00;99.90;;;;;;502998;236;27790;-67
2024/01/22 06:39:47;;;;;;;1.40;1.30;;;8.10;99.90;;;;;;502976;236;28427;-68
2024/01/22 06:41:49;;;;;;;3.10;1.50;;;8.00;99.90;;;;;;502943;236;28011;-67
2024/01/22 06:43:50;;;;;;;4.90;1.83;;;8.10;99.90;;;;;;502897;236;28436;-67
2024/01/22 06:45:51;;;;;;;2.50;1.70;;;8.00;99.90;;;;;;502887;236;28100;-67
2024/01/22 06:47:52;;;;;;;4.20;1.80;;;8.10;99.90;;;;;;503005;236;27938;-68
2024/01/22 06:49:54;;;;;;;4.83;1.83;;;8.10;99.90;;;;;;503003;236;27717;-67
2024/01/22 06:51:55;;;;;;;1.60;1.50;;;8.10;99.90;;;;;;502984;236;27976;-67
2024/01/22 06:53:56;;;;;;;1.73;1.63;;;8.20;99.90;;;;;;502953;236;27569;-68
2024/01/22 06:55:57;;;;;;;2.77;1.80;;;8.20;99.90;;;;;;502962;236;27894;-68
2024/01/22 06:57:59;;;;;;;1.63;1.53;;;8.20;99.90;;;;;;502954;236;27904;-67
2024/01/22 07:00:06;;;;;;;2.10;1.57;;;8.10;99.90;;;;;;502908;236;27762;-68
2024/01/22 07:02:01;;;;;;;3.17;1.80;;;8.00;99.90;;;;;;502693;236;27982;-67
2024/01/22 07:04:03;;;;;;;3.93;2.23;;;8.20;99.90;;;;;;502960;236;27513;-67
2024/01/22 07:06:04;;;;;;;2.57;1.93;;;8.20;99.90;;;;;;502951;236;27714;-68
2024/01/22 07:08:05;;;;;;;2.67;1.83;;;8.00;99.90;;;;;;502959;236;27819;-66
2024/01/22 07:10:07;;;;;;;4.53;1.80;;;7.90;99.90;;;;;;502945;236;28512;-67
2024/01/22 07:12:07;;;;;;;5.70;2.13;;;7.90;99.90;;;;;;502895;236;28013;-66
2024/01/22 07:14:09;;;;;;;3.67;1.80;;;7.90;99.90;;;;;;502979;234;28369;-67
2024/01/22 07:16:11;;;;;;;3.73;2.03;;;7.80;99.90;;;;;;502922;236;28445;-68
2024/01/22 07:18:12;;;;;;;2.93;1.80;;;7.80;99.90;;;;;;502928;236;28129;-67
2024/01/22 07:20:14;;;;;;;5.83;1.93;;;7.70;99.90;;;;;;502942;236;28007;-66
2024/01/22 07:22:14;;;;;;;4.57;2.53;;;7.70;99.90;;;;;;502860;236;27641;-66
2024/01/22 07:24:15;;;;;;;3.60;1.97;;;7.60;99.90;;;;;;502978;236;27646;-66
2024/01/22 07:26:16;;;;;;;4.30;2.47;;;7.60;99.90;;;;;;502804;236;27998;-67
2024/01/22 07:28:17;;;;;;;5.83;2.57;;;7.50;99.90;;;;;;502952;236;27971;-67
2024/01/22 07:30:19;;;;;;;4.17;2.10;;;7.50;99.90;;;;;;502967;236;27952;-67
2024/01/22 07:32:20;;;;;;;3.83;2.30;;;7.40;99.90;;;;;;502997;236;28518;-66
2024/01/22 07:34:21;;;;;;;2.70;2.20;;;7.40;99.90;;;;;;503026;236;28033;-67
2024/01/22 07:36:22;;;;;;;3.40;2.47;;;7.30;99.90;;;;;;502953;236;27845;-67
2024/01/22 07:38:24;;;;;;;4.27;2.30;;;7.30;99.90;;;;;;502949;236;27570;-67
2024/01/22 07:40:25;;;;;;;4.10;2.30;;;7.30;99.90;;;;;;502961;236;28003;-67
2024/01/22 07:42:26;;;;;;;2.50;2.00;;;7.30;99.90;;;;;;502956;236;27870;-68
2024/01/22 07:44:27;;;;;;;3.47;2.33;;;7.30;99.90;;;;;;503037;236;27915;-67
2024/01/22 07:46:29;;;;;;;4.30;2.10;;;7.40;99.90;;;;;;502951;236;27955;-67
2024/01/22 07:48:30;;;;;;;3.63;2.00;;;7.40;99.90;;;;;;502951;236;28378;-65
2024/01/22 07:50:31;;;;;;;2.70;1.80;;;7.40;99.90;;;;;;503003;236;28504;-65
2024/01/22 07:52:36;;;;;;;3.10;2.07;;;7.40;99.90;;;;;;502999;236;28527;-66
2024/01/22 07:54:34;;;;;;;2.70;2.30;;;7.40;99.90;;;;;;502886;236;27889;-65
2024/01/22 07:56:35;;;;;;;5.70;2.20;;;7.40;99.90;;;;;;502945;236;28226;-67
2024/01/22 07:58:36;;;;;;;3.70;2.30;;;7.40;99.90;;;;;;502964;236;28524;-67
2024/01/22 08:00:37;;;;;;;3.80;2.40;;;7.30;99.90;;;;;;502972;236;28009;-66
2024/01/22 08:02:39;;;;;;;2.60;2.40;;;7.30;99.90;;;;;;503015;236;27795;-68
2024/01/22 08:04:40;;;;;;;6.37;2.40;;;7.30;99.90;;;;;;502945;236;27907;-67
2024/01/22 08:06:41;;;;;;;5.40;2.23;;;7.30;99.90;;;;;;502969;234;28178;-66
2024/01/22 08:08:42;;;;;;;3.37;2.30;;;7.20;99.90;;;;;;503003;236;27651;-67
2024/01/22 08:10:44;;;;;;;7.40;2.30;;;7.20;99.90;;;;;;503021;236;27903;-67
2024/01/22 08:12:46;;;;;;;2.50;2.27;;;7.20;99.90;;;;;;502887;236;28199;-68
2024/01/22 08:14:46;;;;;;;4.43;2.20;;;7.30;99.90;;;;;;502904;236;28039;-66
2024/01/22 08:16:49;;;;;;;3.77;2.30;;;7.20;99.90;;;;;;502941;236;27945;-67
2024/01/22 08:18:49;;;;;;;3.50;2.20;;;7.20;99.90;;;;;;502967;236;28060;-68
2024/01/22 08:20:50;;;;;;;6.03;2.20;;;7.20;99.90;;;;;;502981;236;28030;-66
2024/01/22 08:22:51;;;;;;;6.57;2.97;;;7.20;99.90;;;;;;502989;236;28076;-66
2024/01/22 08:24:52;;;;;;;2.17;2.00;;;7.20;99.90;;;;;;502921;236;27530;-67
2024/01/22 08:26:54;;;;;;;5.10;2.37;;;7.20;99.90;;;;;;502948;236;28715;-65
2024/01/22 08:28:55;;;;;;;2.13;1.90;;;7.20;99.90;;;;;;503017;236;28705;-66
2024/01/22 08:30:56;;;;;;;2.30;2.10;;;7.30;99.90;;;;;;502990;236;29289;-67
2024/01/22 08:32:58;;;;;;;3.13;2.17;;;7.30;99.90;;;;;;502905;236;28286;-66
2024/01/22 08:34:59;;;;;;;6.20;2.40;;;7.20;99.90;;;;;;502897;236;28852;-67
2024/01/22 08:37:00;;;;;;;2.17;1.95;;;7.30;99.90;;;;;;502994;236;28847;-64
2024/01/22 08:39:01;;;;;;;6.10;3.15;;;7.30;99.90;;;;;;503020;236;27395;-68
2024/01/22 08:41:08;;;;;;;4.30;2.03;;;7.30;99.90;;;;;;502965;236;27518;-66
2024/01/22 08:43:04;;;;;;;3.23;2.30;;;7.30;99.90;;;;;;502740;236;27588;-67
2024/01/22 08:45:05;;;;;;;6.87;3.00;;;7.30;99.90;;;;;;502964;233;28073;-66
2024/01/22 08:47:07;;;;;;;4.10;2.27;;;7.30;99.90;;;;;;503001;236;28037;-67
2024/01/22 08:49:07;;;;;;;3.70;2.57;;;7.30;99.90;;;;;;502977;236;27854;-67
2024/01/22 08:51:09;;;;;;;2.67;2.00;;;7.30;99.90;;;;;;502950;236;28768;-67
2024/01/22 08:53:10;;;;;;;2.67;2.27;;;7.30;99.90;;;;;;502936;236;28884;-67
2024/01/22 08:55:11;;;;;;;2.87;2.10;;;7.40;99.90;;;;;;502955;236;27844;-68
2024/01/22 08:57:12;;;;;;;3.93;2.00;;;7.30;99.90;;;;;;502955;236;27925;-68
2024/01/22 08:59:14;;;;;;;4.27;2.37;;;7.30;99.90;;;;;;503010;236;27834;-65
2024/01/22 09:01:15;;;;;;;6.57;2.53;;;7.30;99.90;;;;;;502937;236;28484;-67
2024/01/22 09:03:16;;;;;;;3.43;2.57;;;7.30;99.90;;;;;;502935;236;28130;-67
2024/01/22 09:05:17;;;;;;;3.10;2.00;;;7.30;99.90;;;;;;502929;236;29270;-68
2024/01/22 09:07:19;;;;;;;2.90;1.97;;;7.40;99.90;;;;;;502971;236;28369;-65
2024/01/22 09:09:20;;;;;;;4.03;2.23;;;7.40;99.90;;;;;;502971;236;28541;-65
2024/01/22 09:11:21;;;;;;;8.57;2.50;;;7.30;99.90;;;;;;502954;236;28398;-66
2024/01/22 09:13:22;;;;;;;3.67;2.20;;;7.40;99.90;;;;;;502979;236;27692;-67
2024/01/22 09:15:24;;;;;;;11.97;2.93;;;7.40;99.90;;;;;;502951;236;27880;-68
2024/01/22 09:17:25;;;;;;;3.63;2.37;;;7.50;99.90;;;;;;502967;236;27885;-66
2024/01/22 09:19:27;;;;;;;2.67;2.10;;;7.50;99.90;;;;;;502962;236;27607;-68
2024/01/22 09:21:27;;;;;;;2.50;1.97;;;7.50;99.90;;;;;;502936;236;27718;-68
2024/01/22 09:23:29;;;;;;;3.17;2.17;;;7.60;99.90;;;;;;502971;236;27778;-67
2024/01/22 09:25:30;;;;;;;3.90;2.50;;;7.60;99.90;;;;;;502943;236;28054;-68
2024/01/22 09:27:31;;;;;;;4.00;2.20;;;7.60;99.90;;;;;;502963;236;28002;-67
2024/01/22 09:29:32;;;;;;;2.60;2.40;;;7.60;99.90;;;;;;502961;236;28071;-67
2024/01/22 09:31:34;;;;;;;4.40;2.20;;;7.60;99.90;;;;;;503008;236;27973;-68
2024/01/22 09:33:35;;;;;;;3.50;1.73;;;7.60;99.90;;;;;;503000;236;27917;-67
2024/01/22 09:35:36;;;;;;;4.37;2.10;;;7.60;99.90;;;;;;502945;236;28067;-67
2024/01/22 09:37:37;;;;;;;3.33;1.80;;;7.60;99.90;;;;;;503011;236;27695;-67
2024/01/22 09:39:39;;;;;;;2.73;2.10;;;7.60;99.90;;;;;;502915;236;28425;-67
2024/01/22 09:41:40;;;;;;;4.23;2.30;;;7.60;99.90;;;;;;502961;236;28422;-68
2024/01/22 09:43:41;;;;;;;2.30;2.20;;;7.70;99.90;;;;;;502987;236;28458;-67
2024/01/22 09:45:42;;;;;;;2.27;1.83;;;7.70;99.90;;;;;;502903;236;28443;-67
2024/01/22 09:47:45;;;;;;;5.70;2.43;;;7.70;99.90;;;;;;502968;236;28347;-67
2024/01/22 09:49:45;;;;;;;3.97;1.97;;;7.70;99.90;;;;;;502944;236;27912;-67
2024/01/22 09:51:46;;;;;;;4.43;2.33;;;7.70;99.90;;;;;;502985;236;27976;-67
2024/01/22 09:53:47;;;;;;;3.20;2.00;;;7.80;99.90;;;;;;502980;236;27876;-67
2024/01/22 09:55:49;;;;;;;5.43;1.97;;;7.80;99.90;;;;;;502919;236;27959;-68
2024/01/22 09:57:50;;;;;;;3.97;2.50;;;7.90;99.90;;;;;;502998;236;27935;-67
2024/01/22 09:59:51;;;;;;;2.13;1.93;;;7.90;99.90;;;;;;503009;236;27750;-67
2024/01/22 10:01:53;;;;;;;3.10;1.77;;;7.90;99.90;;;;;;502863;236;27622;-68
2024/01/22 10:03:55;;;;;;;2.83;2.03;;;7.90;99.90;;;;;;502994;236;28063;-67
2024/01/22 10:05:55;;;;;;;1.80;1.70;;;7.90;99.90;;;;;;502885;236;27386;-67
2024/01/22 10:07:56;;;;;;;3.07;2.17;;;7.90;99.90;;;;;;503021;236;27922;-68
2024/01/22 10:09:57;;;;;;;3.90;1.87;;;7.90;99.90;;;;;;502997;236;27920;-67
2024/01/22 10:11:59;;;;;;;4.57;1.93;;;8.00;99.90;;;;;;502934;236;27925;-68
2024/01/22 10:14:00;;;;;;;3.37;1.87;;;8.00;99.90;;;;;;502982;236;27965;-67
2024/01/22 10:16:01;;;;;;;4.10;1.90;;;8.00;99.90;;;;;;502891;236;27942;-68
2024/01/22 10:18:02;;;;;;;2.87;2.40;;;8.10;99.90;;;;;;502984;236;28312;-68
2024/01/22 10:20:04;;;;;;;2.53;1.80;;;8.10;99.90;;;;;;502999;236;28390;-67
2024/01/22 10:22:05;;;;;;;1.97;1.87;;;8.10;99.90;;;;;;502957;236;28393;-68
2024/01/22 10:24:06;;;;;;;5.57;2.13;;;8.10;99.90;;;;;;502999;236;29233;-67
2024/01/22 10:26:09;;;;;;;5.27;1.97;;;8.10;99.90;;;;;;502967;236;28272;-67
2024/01/22 10:28:09;;;;;;;6.57;2.17;;;8.10;99.90;;;;;;502956;236;27862;-68
2024/01/22 10:30:10;;;;;;;3.70;1.93;;;8.20;99.90;;;;;;502978;236;27904;-67
2024/01/22 10:32:11;;;;;;;4.50;2.10;;;8.10;99.90;;;;;;502917;236;27959;-67
2024/01/22 10:34:12;;;;;;;5.37;1.90;;;8.10;99.90;;;;;;502989;236;27971;-67
2024/01/22 10:36:16;;;;;;;3.97;2.10;;;8.20;99.90;;;;;;502965;236;27913;-68
2024/01/22 10:38:16;;;;;;;2.43;1.90;;;8.20;99.90;;;;;;502898;236;28071;-67
2024/01/22 10:40:16;;;;;;;2.20;2.00;;;8.10;99.90;;;;;;502934;236;28279;-68